Kincheloe, MI (49784)

11:05 PM EST on February 09, 2016 (GMT -0500)
Chippewa County International | | Change Station
CLOSE
Current Station
Airport
Location: Chippewa,
Elevation: 801 ft
Nearby Weather Stations

Elev 801 ft 46.25 °N, 84.48 °W | Updated 10 minutes ago

Snow
Snow
10 °F
Feels Like -5 °F
N
13
Wind Variable Wind from North

Today
High -- | Low -- °F
--% Chance of Precip.
Yesterday
High -- | Low -- °F
Precip. -- in
Pressure 29.72 in
Visibility 10.0 miles
Clouds Overcast 8500 ft
Windchill -5 °F
Dew Point 7 °F
Humidity 85%
Rainfall 0.00 in
Snow Depth Not available.
7:50 AM 5:53 PM
Waxing Crescent, 3% visible
METAR KCIU 100355Z AUTO 36011KT 10SM OVC085 M12/M14 A2972 RMK AO1
Pressure 29.72 in
Visibility 10.0 miles
Clouds Overcast 8500 ft
Windchill -5 °F
Dew Point 7 °F
Humidity 85%
Rainfall 0.00 in
Snow Depth Not available.
7:50 AM 5:53 PM
Waxing Crescent, 3% visible
METAR KCIU 100355Z AUTO 36011KT 10SM OVC085 M12/M14 A2972 RMK AO1

10-Day Weather Forecast

Almanac

Astronomy

Feb. 09, 2016 Rise Set
Actual Time
Civil Twilight
Nautical Twilight
Astronomical Twilight
Moon
Length of Visible Light
Length of Day
Tomorrow will be .
, % of the Moon is Illuminated

Today's Extremes

State Highs State Lows

Community

WunderPhotos

Upload Photos

1,891,795 photos uploaded!

WunderBlog® & News

Nearby

Air Quality

  Air Quality AQ Index Pollutant
Not available.

Snow Depth

Station Depth Elevation

Earthquake Activity

City Distance Mag. Time & Date
Minimum magnitude displayed is 2.5.

Coastal Water Temperatures

Place Temperature

Stations

Nearby Weather Stations

Station Location Temp. Windchill Dew Point Humidity Wind Precip. Elev Updated Type
                   

Watches & Warnings

There are currently no watches in effect.